createdAt,value
2022-08-17T00:00:55.022Z,4.87
2022-08-17T00:01:59.959Z,4.09
2022-08-17T00:03:17.505Z,4.10
2022-08-17T00:04:20.759Z,4.20
2022-08-17T00:05:23.971Z,4.46
2022-08-17T00:06:29.273Z,4.15
2022-08-17T00:07:32.538Z,4.12
2022-08-17T00:08:41.979Z,3.69
2022-08-17T00:09:45.044Z,3.97
2022-08-17T00:10:49.033Z,4.07
2022-08-17T00:12:40.910Z,4.54
2022-08-17T00:12:56.996Z,4.22
2022-08-17T00:14:06.740Z,3.60
2022-08-17T00:15:10.900Z,3.98
2022-08-17T00:16:56.650Z,4.12
2022-08-17T00:17:31.211Z,3.86
2022-08-17T00:19:07.858Z,3.92
2022-08-17T00:19:39.555Z,3.46
2022-08-17T00:20:43.062Z,3.58
2022-08-17T00:22:29.389Z,4.27
2022-08-17T00:23:04.758Z,4.21
2022-08-17T00:24:08.179Z,3.83
2022-08-17T00:25:14.624Z,4.69
2022-08-17T00:26:43.589Z,4.03
2022-08-17T00:27:24.809Z,3.63
2022-08-17T00:28:27.812Z,4.21
2022-08-17T00:29:32.577Z,4.17
2022-08-17T00:30:50.835Z,3.72
2022-08-17T00:31:41.047Z,3.82
2022-08-17T00:33:22.799Z,3.92
2022-08-17T00:33:51.293Z,3.83
2022-08-17T00:34:54.326Z,4.45
2022-08-17T00:35:58.471Z,3.42
2022-08-17T00:37:01.568Z,4.15
2022-08-17T00:38:06.690Z,3.70
2022-08-17T00:39:09.584Z,4.37
2022-08-17T00:40:14.736Z,3.79
2022-08-17T00:41:21.257Z,4.80
2022-08-17T00:42:27.593Z,3.76
2022-08-17T00:43:47.992Z,3.57
2022-08-17T00:44:51.023Z,3.77
2022-08-17T00:45:54.638Z,3.49
2022-08-17T00:46:57.785Z,4.07
2022-08-17T00:48:00.753Z,3.92
2022-08-17T00:49:05.330Z,4.14
2022-08-17T00:50:12.445Z,3.83
2022-08-17T00:51:21.825Z,3.83
2022-08-17T00:52:28.354Z,4.01
2022-08-17T00:53:33.434Z,4.10
2022-08-17T00:54:41.726Z,4.09
2022-08-17T00:55:44.301Z,3.31
2022-08-17T00:56:50.909Z,4.09
2022-08-17T00:57:57.302Z,3.44
2022-08-17T00:59:02.503Z,3.75
2022-08-17T01:00:09.529Z,3.77
2022-08-17T01:01:21.405Z,4.02
2022-08-17T01:02:19.714Z,4.01
2022-08-17T01:03:26.097Z,3.81
2022-08-17T01:04:31.117Z,3.88
2022-08-17T01:05:38.006Z,3.37
2022-08-17T01:06:44.882Z,3.82
2022-08-17T01:07:50.060Z,4.14
2022-08-17T01:08:57.467Z,3.75
2022-08-17T01:10:03.439Z,3.81
2022-08-17T01:11:08.031Z,4.22
2022-08-17T01:12:11.932Z,3.28
2022-08-17T01:13:15.785Z,4.02
2022-08-17T01:14:20.989Z,3.49
2022-08-17T01:15:24.073Z,3.67
2022-08-17T01:16:31.063Z,3.84
2022-08-17T01:17:34.520Z,3.51
2022-08-17T01:18:37.714Z,3.96
2022-08-17T01:19:42.778Z,3.33
2022-08-17T01:20:51.883Z,3.84
2022-08-17T01:22:13.875Z,4.22
2022-08-17T01:23:20.888Z,4.24
2022-08-17T01:24:24.026Z,3.41
2022-08-17T01:25:29.046Z,3.51
2022-08-17T01:26:35.035Z,4.13
2022-08-17T01:27:38.430Z,3.82
2022-08-17T01:28:53.778Z,4.06
2022-08-17T01:29:50.664Z,3.48
2022-08-17T01:30:58.419Z,3.79
2022-08-17T01:32:03.313Z,3.55
2022-08-17T01:33:08.098Z,3.99
2022-08-17T01:34:12.339Z,3.52
2022-08-17T01:35:15.444Z,3.80
2022-08-17T01:36:20.049Z,3.31
2022-08-17T01:37:29.404Z,3.74
2022-08-17T01:38:33.216Z,4.26
2022-08-17T01:39:39.874Z,3.94
2022-08-17T01:40:46.669Z,4.18
2022-08-17T01:41:53.167Z,3.79
2022-08-17T01:42:59.726Z,3.40
2022-08-17T01:44:05.147Z,3.94
2022-08-17T01:45:16.172Z,4.02
2022-08-17T01:46:29.024Z,4.08
2022-08-17T01:47:32.212Z,4.12
2022-08-17T01:48:38.660Z,3.67
2022-08-17T01:49:41.866Z,4.20
2022-08-17T01:50:47.191Z,4.43
2022-08-17T01:51:50.559Z,3.96
2022-08-17T01:52:56.989Z,3.96
2022-08-17T01:54:06.258Z,3.54
2022-08-17T01:55:10.832Z,3.97
2022-08-17T01:56:17.737Z,4.07
2022-08-17T01:57:20.659Z,4.63
2022-08-17T01:58:23.827Z,3.64
2022-08-17T01:59:26.955Z,3.51
2022-08-17T02:00:46.693Z,3.98
2022-08-17T02:01:37.350Z,3.98
2022-08-17T02:02:40.281Z,4.14
2022-08-17T02:03:56.107Z,3.44
2022-08-17T02:04:48.305Z,4.12
2022-08-17T02:05:52.684Z,3.14
2022-08-17T02:06:55.886Z,3.86
2022-08-17T02:08:00.823Z,3.69
2022-08-17T02:09:05.513Z,4.03
2022-08-17T02:10:16.672Z,4.21
2022-08-17T02:11:18.356Z,3.82
2022-08-17T02:12:39.171Z,3.84
2022-08-17T02:13:31.359Z,4.48
2022-08-17T02:14:34.380Z,4.36
2022-08-17T02:15:37.566Z,4.24
2022-08-17T02:16:41.765Z,4.39
2022-08-17T02:17:45.295Z,3.89
2022-08-17T02:18:48.299Z,4.22
2022-08-17T02:19:51.370Z,4.04
2022-08-17T02:20:54.973Z,3.67
2022-08-17T02:21:57.872Z,3.95
2022-08-17T02:23:02.433Z,3.93
2022-08-17T02:24:10.264Z,4.30
2022-08-17T02:25:16.369Z,4.49
2022-08-17T02:26:25.760Z,3.98
2022-08-17T02:27:26.397Z,3.92
2022-08-17T02:28:29.598Z,3.94
2022-08-17T02:29:32.697Z,4.86
2022-08-17T02:31:00.970Z,4.81
2022-08-17T02:31:42.352Z,4.90
2022-08-17T02:32:45.268Z,4.38
2022-08-17T02:34:00.554Z,4.21
2022-08-17T02:34:54.001Z,4.54
2022-08-17T02:35:57.374Z,4.75
2022-08-17T02:37:00.350Z,4.22
2022-08-17T02:38:05.634Z,4.39
2022-08-17T02:39:10.333Z,4.45
2022-08-17T02:40:14.129Z,4.94
2022-08-17T02:41:18.197Z,4.48
2022-08-17T02:42:27.247Z,4.55
2022-08-17T02:43:30.783Z,4.46
2022-08-17T02:44:35.431Z,4.36
2022-08-17T02:45:39.098Z,4.73
2022-08-17T02:46:42.182Z,4.39
2022-08-17T02:47:45.934Z,4.78
2022-08-17T02:48:48.987Z,4.31
2022-08-17T02:49:55.655Z,4.51
2022-08-17T02:50:57.868Z,4.42
2022-08-17T02:52:04.447Z,4.97
2022-08-17T02:53:07.777Z,4.58
2022-08-17T02:54:39.426Z,5.24
2022-08-17T02:55:19.970Z,4.27
2022-08-17T02:56:24.230Z,4.37
2022-08-17T02:57:27.219Z,4.04
2022-08-17T02:58:34.523Z,4.17
2022-08-17T02:59:35.065Z,4.40
2022-08-17T03:00:45.436Z,4.23
2022-08-17T03:01:48.855Z,4.32
2022-08-17T03:02:52.701Z,4.72
2022-08-17T03:03:56.603Z,5.31
2022-08-17T03:04:59.627Z,5.36
2022-08-17T03:06:03.866Z,5.48
2022-08-17T03:07:07.059Z,5.07
2022-08-17T03:08:11.696Z,5.10
2022-08-17T03:09:16.260Z,5.22
2022-08-17T03:10:19.699Z,5.84
2022-08-17T03:11:23.109Z,5.30
2022-08-17T03:12:30.572Z,5.46
2022-08-17T03:13:33.668Z,6.15
2022-08-17T03:14:41.479Z,5.78
2022-08-17T03:15:45.657Z,5.45
2022-08-17T03:16:48.887Z,6.27
2022-08-17T03:17:53.652Z,5.56
2022-08-17T03:18:56.933Z,6.39
2022-08-17T03:20:00.143Z,5.79
2022-08-17T03:21:03.894Z,5.64
2022-08-17T03:22:36.186Z,5.98
2022-08-17T03:23:12.971Z,5.36
2022-08-17T03:24:16.436Z,6.64
2022-08-17T03:25:27.569Z,6.36
2022-08-17T03:27:35.183Z,6.94
2022-08-17T03:28:38.658Z,6.59
2022-08-17T03:29:41.864Z,7.03
2022-08-17T03:30:45.031Z,6.66
2022-08-17T03:31:49.197Z,7.06
2022-08-17T03:32:54.615Z,7.07
2022-08-17T03:33:57.812Z,7.12
2022-08-17T03:35:02.275Z,7.35
2022-08-17T03:36:06.319Z,7.72
2022-08-17T03:37:09.644Z,7.24
2022-08-17T03:38:15.950Z,7.74
2022-08-17T03:39:19.160Z,7.96
2022-08-17T03:40:34.519Z,7.54
2022-08-17T03:41:27.301Z,7.33
2022-08-17T03:42:32.540Z,6.82
2022-08-17T03:43:35.575Z,7.09
2022-08-17T03:44:38.532Z,6.64
2022-08-17T03:46:00.638Z,6.02
2022-08-17T03:47:22.189Z,6.68
2022-08-17T03:48:43.633Z,6.21
2022-08-17T03:50:06.742Z,6.87
2022-08-17T03:51:15.531Z,6.59
2022-08-17T03:52:36.680Z,6.39
2022-08-17T03:54:12.486Z,5.65
2022-08-17T03:55:36.407Z,5.97
2022-08-17T03:56:42.434Z,5.93
2022-08-17T03:57:45.430Z,6.54
2022-08-17T03:58:49.202Z,5.78
2022-08-17T03:59:53.821Z,5.79
2022-08-17T04:00:56.882Z,6.04
2022-08-17T04:02:08.392Z,5.81
2022-08-17T04:03:12.837Z,6.04
2022-08-17T04:04:16.323Z,5.11
2022-08-17T04:05:21.225Z,5.33
2022-08-17T04:06:24.311Z,5.16
2022-08-17T04:07:29.351Z,5.18
2022-08-17T04:08:32.848Z,5.19
2022-08-17T04:09:36.074Z,5.24
2022-08-17T04:10:44.809Z,5.15
2022-08-17T04:11:44.873Z,4.92
2022-08-17T04:12:52.545Z,4.89
2022-08-17T04:13:56.199Z,4.92
2022-08-17T04:14:59.266Z,5.08
2022-08-17T04:16:02.247Z,4.84
2022-08-17T04:17:07.238Z,5.21
2022-08-17T04:18:11.070Z,5.39
2022-08-17T04:19:14.304Z,4.84
2022-08-17T04:20:20.228Z,4.70
2022-08-17T04:21:23.840Z,4.73
2022-08-17T04:22:33.235Z,4.65
2022-08-17T04:23:34.543Z,4.74
2022-08-17T04:24:37.647Z,5.06
2022-08-17T04:25:44.004Z,5.35
2022-08-17T04:26:53.175Z,5.44
2022-08-17T04:27:54.433Z,5.44
2022-08-17T04:28:59.835Z,4.92
2022-08-17T04:30:06.328Z,4.61
2022-08-17T04:31:11.195Z,5.82
2022-08-17T04:32:14.080Z,4.95
2022-08-17T04:33:20.848Z,4.88
2022-08-17T04:34:24.547Z,5.58
2022-08-17T04:35:31.332Z,5.21
2022-08-17T04:36:35.972Z,5.14
2022-08-17T04:37:38.831Z,5.42
2022-08-17T04:38:43.917Z,5.10
2022-08-17T04:39:48.873Z,5.66
2022-08-17T04:41:11.890Z,5.08
2022-08-17T04:42:16.721Z,5.21
2022-08-17T04:43:22.550Z,5.41
2022-08-17T04:44:36.958Z,5.61
2022-08-17T04:45:31.969Z,5.36
2022-08-17T04:46:35.850Z,5.48
2022-08-17T04:47:39.693Z,5.19
2022-08-17T04:48:48.478Z,5.35
2022-08-17T04:49:53.094Z,4.97
2022-08-17T04:50:57.889Z,5.47
2022-08-17T04:52:04.303Z,5.61
2022-08-17T04:53:05.996Z,5.71
2022-08-17T04:54:12.386Z,5.38
2022-08-17T04:55:15.451Z,5.45
2022-08-17T04:56:19.063Z,6.16
2022-08-17T04:57:22.227Z,5.62
2022-08-17T04:58:25.611Z,6.28
2022-08-17T04:59:28.636Z,5.85
2022-08-17T05:00:33.127Z,5.69
2022-08-17T05:01:38.639Z,5.34
2022-08-17T05:02:50.290Z,5.58
2022-08-17T05:03:55.881Z,5.59
2022-08-17T05:04:59.026Z,6.07
2022-08-17T05:06:03.837Z,5.52
2022-08-17T05:07:07.229Z,5.61
2022-08-17T05:08:10.401Z,5.72
2022-08-17T05:09:13.670Z,4.77
2022-08-17T05:10:17.229Z,5.14
2022-08-17T05:11:20.728Z,5.49
2022-08-17T05:12:23.802Z,5.28
2022-08-17T05:13:31.696Z,5.32
2022-08-17T05:14:34.809Z,5.08
2022-08-17T05:15:45.182Z,5.14
2022-08-17T05:16:46.992Z,5.08
2022-08-17T05:17:49.897Z,4.76
2022-08-17T05:18:53.803Z,5.16
2022-08-17T05:19:56.716Z,4.55
2022-08-17T05:20:59.933Z,4.19
2022-08-17T05:22:05.154Z,4.71
2022-08-17T05:23:11.751Z,4.84
2022-08-17T05:24:42.467Z,4.58
2022-08-17T05:25:25.611Z,4.49
2022-08-17T05:26:29.575Z,4.78
2022-08-17T05:27:35.279Z,4.94
2022-08-17T05:28:37.682Z,4.72
2022-08-17T05:29:41.060Z,3.98
2022-08-17T05:30:45.280Z,4.31
2022-08-17T05:31:50.253Z,4.82
2022-08-17T05:32:58.983Z,4.17
2022-08-17T05:34:02.915Z,4.26
2022-08-17T05:35:06.559Z,4.75
2022-08-17T05:36:42.331Z,4.88
2022-08-17T05:37:18.295Z,4.63
2022-08-17T05:38:22.960Z,4.78
2022-08-17T05:39:26.019Z,4.78
2022-08-17T05:40:32.694Z,4.71
2022-08-17T05:41:35.104Z,4.63
2022-08-17T05:42:38.184Z,4.94
2022-08-17T05:43:42.197Z,4.50
2022-08-17T05:44:45.469Z,5.06
2022-08-17T05:46:07.023Z,4.74
2022-08-17T05:47:10.144Z,5.19
2022-08-17T05:48:14.857Z,4.47
2022-08-17T05:49:21.536Z,5.02
2022-08-17T05:50:31.328Z,5.06
2022-08-17T05:52:00.775Z,5.07
2022-08-17T05:53:07.369Z,5.39
2022-08-17T05:54:45.370Z,5.06
2022-08-17T05:56:22.365Z,5.53
2022-08-17T05:57:36.510Z,5.12
2022-08-17T05:58:50.195Z,5.45
2022-08-17T06:00:02.611Z,5.39
2022-08-17T06:01:13.900Z,6.02
2022-08-17T06:02:49.352Z,5.09
2022-08-17T06:04:02.022Z,6.61
2022-08-17T06:05:25.316Z,5.97
2022-08-17T06:06:44.396Z,6.48
2022-08-17T06:08:07.980Z,6.32
2022-08-17T06:10:29.185Z,6.11
2022-08-17T06:11:36.168Z,5.84
2022-08-17T06:13:00.591Z,6.30
2022-08-17T06:14:19.279Z,6.10
2022-08-17T06:15:31.961Z,6.62
2022-08-17T06:16:38.532Z,5.87
2022-08-17T06:17:42.932Z,5.66
2022-08-17T06:18:49.575Z,6.45
2022-08-17T06:19:56.403Z,6.58
2022-08-17T06:21:03.187Z,6.28
2022-08-17T06:22:09.397Z,7.20
2022-08-17T06:23:17.743Z,6.86
2022-08-17T06:24:30.953Z,6.84
2022-08-17T06:25:37.533Z,6.82
2022-08-17T06:26:43.685Z,6.59
2022-08-17T06:27:53.874Z,7.58
2022-08-17T06:29:00.656Z,6.93
2022-08-17T06:30:24.320Z,7.03
2022-08-17T06:31:30.429Z,7.17
2022-08-17T06:32:38.809Z,6.51
2022-08-17T06:33:43.703Z,5.78
2022-08-17T06:34:46.800Z,6.06
2022-08-17T06:36:02.801Z,6.79
2022-08-17T06:37:18.252Z,5.12
2022-08-17T06:38:43.161Z,5.47
2022-08-17T06:40:02.139Z,5.42
2022-08-17T06:41:09.673Z,5.33
2022-08-17T06:42:59.985Z,5.62
2022-08-17T06:43:34.162Z,5.43
2022-08-17T06:45:05.078Z,5.58
2022-08-17T06:46:12.425Z,6.93
2022-08-17T06:47:28.717Z,5.99
2022-08-17T06:48:51.735Z,5.89
2022-08-17T06:50:11.248Z,5.64
2022-08-17T06:51:18.048Z,6.19
2022-08-17T06:52:46.841Z,6.53
2022-08-17T06:53:41.956Z,7.21
2022-08-17T06:55:18.179Z,7.12
2022-08-17T06:56:53.694Z,7.34
2022-08-17T06:57:40.535Z,7.10
2022-08-17T06:58:44.347Z,7.59
2022-08-17T06:59:55.515Z,7.01
2022-08-17T07:00:58.963Z,7.46
2022-08-17T07:02:05.911Z,7.12
2022-08-17T07:03:24.573Z,6.84
2022-08-17T07:04:30.758Z,7.29
2022-08-17T07:05:44.489Z,7.96
2022-08-17T07:06:53.937Z,7.63
2022-08-17T07:08:12.674Z,7.87
2022-08-17T07:09:22.813Z,7.41
2022-08-17T07:10:28.813Z,7.54
2022-08-17T07:11:41.529Z,8.04
2022-08-17T07:12:45.578Z,7.96
2022-08-17T07:13:58.410Z,7.29
2022-08-17T07:15:14.378Z,6.77
2022-08-17T07:16:27.895Z,7.63
2022-08-17T07:17:47.440Z,8.02
2022-08-17T07:18:38.747Z,7.33
2022-08-17T07:19:45.009Z,7.62
2022-08-17T07:20:51.640Z,7.94
2022-08-17T07:22:07.146Z,7.91
2022-08-17T07:23:16.779Z,8.09
2022-08-17T07:24:36.772Z,8.66
2022-08-17T07:25:39.950Z,7.96
2022-08-17T07:26:43.029Z,8.33
2022-08-17T07:27:52.218Z,7.67
2022-08-17T07:28:55.733Z,8.17
2022-08-17T07:30:17.279Z,7.93
2022-08-17T07:31:20.544Z,7.20
2022-08-17T07:32:33.664Z,8.41
2022-08-17T07:33:37.654Z,7.97
2022-08-17T07:35:12.878Z,7.51
2022-08-17T07:36:29.792Z,8.13
2022-08-17T07:37:33.079Z,7.39
2022-08-17T07:38:39.676Z,7.55
2022-08-17T07:39:59.714Z,7.74
2022-08-17T07:41:04.536Z,7.67
2022-08-17T07:42:09.821Z,7.93
2022-08-17T07:43:22.201Z,7.78
2022-08-17T07:44:20.777Z,7.73
2022-08-17T07:45:42.152Z,7.57
2022-08-17T07:47:09.602Z,7.62
2022-08-17T07:48:19.271Z,6.68
2022-08-17T07:49:34.783Z,7.34
2022-08-17T07:50:38.476Z,6.33
2022-08-17T07:51:49.355Z,6.51
2022-08-17T07:52:52.602Z,6.32
2022-08-17T07:54:13.556Z,6.27
2022-08-17T07:55:11.738Z,6.03
2022-08-17T07:56:37.360Z,6.16
2022-08-17T07:57:40.359Z,5.88
2022-08-17T07:58:43.354Z,6.34
2022-08-17T08:00:12.810Z,6.14
2022-08-17T08:01:17.869Z,6.28
2022-08-17T08:02:38.157Z,6.25
2022-08-17T08:03:43.091Z,5.71
2022-08-17T08:05:01.147Z,4.79
2022-08-17T08:06:00.601Z,6.03
2022-08-17T08:07:07.213Z,5.89
2022-08-17T08:08:43.083Z,5.39
2022-08-17T08:10:01.538Z,5.86
2022-08-17T08:11:18.113Z,5.60
2022-08-17T08:12:33.613Z,4.62
2022-08-17T08:13:42.047Z,4.33
2022-08-17T08:14:57.935Z,4.32
2022-08-17T08:17:29.327Z,4.81
2022-08-17T08:18:53.845Z,4.94
2022-08-17T08:19:40.132Z,5.07
2022-08-17T08:20:52.413Z,5.28
2022-08-17T08:22:19.715Z,5.30
2022-08-17T08:23:38.961Z,4.77
2022-08-17T08:24:48.578Z,5.46
2022-08-17T08:26:00.887Z,5.37
2022-08-17T08:27:38.540Z,5.10
2022-08-17T08:29:06.254Z,4.29
2022-08-17T08:30:19.095Z,5.08
2022-08-17T08:31:28.796Z,4.93
2022-08-17T08:32:58.544Z,4.74
2022-08-17T08:34:47.392Z,5.08
2022-08-17T08:35:30.994Z,5.05
2022-08-17T08:37:12.583Z,4.96
2022-08-17T08:38:05.427Z,4.34
2022-08-17T08:39:17.594Z,5.61
2022-08-17T08:40:38.200Z,11.70
2022-08-17T08:41:57.893Z,5.83
2022-08-17T08:43:04.710Z,5.79
2022-08-17T08:45:00.350Z,5.18
2022-08-17T08:45:56.050Z,4.46
2022-08-17T08:47:18.684Z,5.48
2022-08-17T08:48:56.083Z,4.48
2022-08-17T08:50:05.969Z,4.82
2022-08-17T08:51:26.445Z,5.27
2022-08-17T08:52:42.140Z,4.96
2022-08-17T08:53:51.503Z,5.27
2022-08-17T08:55:12.869Z,4.78
2022-08-17T08:56:39.056Z,5.07
2022-08-17T08:59:32.855Z,4.77
2022-08-17T09:00:40.015Z,4.61
2022-08-17T09:01:49.675Z,4.67
2022-08-17T09:03:11.491Z,4.63
2022-08-17T09:04:25.263Z,5.02
2022-08-17T09:05:55.423Z,4.14
2022-08-17T09:07:20.446Z,3.99
2022-08-17T09:08:39.079Z,4.54
2022-08-17T09:10:04.481Z,4.33
2022-08-17T09:11:21.870Z,3.95
2022-08-17T09:12:29.238Z,4.68
2022-08-17T09:14:02.503Z,4.20
2022-08-17T09:15:33.043Z,3.62
2022-08-17T09:18:59.923Z,3.96
2022-08-17T09:19:37.950Z,4.83
2022-08-17T09:20:53.383Z,4.49
2022-08-17T09:22:00.077Z,4.03
2022-08-17T09:23:07.466Z,3.89
2022-08-17T09:24:25.990Z,3.96
2022-08-17T09:25:32.703Z,3.98
2022-08-17T09:28:35.675Z,3.04
2022-08-17T09:29:44.956Z,3.02
2022-08-17T09:30:51.496Z,3.63
2022-08-17T09:31:57.693Z,3.93
2022-08-17T09:33:04.340Z,4.19
2022-08-17T09:34:16.246Z,3.66
2022-08-17T09:35:24.523Z,3.41
2022-08-17T09:36:37.878Z,4.07
2022-08-17T09:38:04.316Z,3.67
2022-08-17T09:39:16.738Z,4.08
2022-08-17T09:40:35.464Z,3.94
2022-08-17T09:41:49.330Z,3.74
2022-08-17T09:42:56.456Z,3.49
2022-08-17T09:44:28.589Z,3.44
2022-08-17T09:45:48.902Z,3.26
2022-08-17T09:47:10.661Z,3.38
2022-08-17T09:48:19.948Z,3.22
2022-08-17T09:49:32.528Z,3.26
2022-08-17T09:51:05.378Z,3.13
2022-08-17T09:52:12.984Z,3.53
2022-08-17T09:53:16.150Z,3.04
2022-08-17T09:54:40.846Z,2.96
2022-08-17T09:56:04.452Z,3.07
2022-08-17T09:57:29.739Z,3.86
2022-08-17T09:58:29.120Z,2.79
2022-08-17T09:59:56.379Z,3.34
2022-08-17T10:02:43.476Z,2.98
2022-08-17T10:03:59.235Z,2.78
2022-08-17T10:05:14.787Z,2.61
2022-08-17T10:06:33.597Z,3.01
2022-08-17T10:07:42.840Z,2.88
2022-08-17T10:09:00.539Z,3.36
2022-08-17T10:10:14.373Z,2.67
2022-08-17T10:11:50.401Z,2.64
2022-08-17T10:12:57.220Z,2.10
2022-08-17T10:14:36.513Z,2.62
2022-08-17T10:15:27.408Z,2.63
2022-08-17T10:16:49.201Z,2.20
2022-08-17T10:18:06.470Z,2.77
2022-08-17T10:19:36.941Z,2.78
2022-08-17T10:20:50.465Z,2.57
2022-08-17T10:22:35.161Z,2.58
2022-08-17T10:23:44.661Z,2.29
2022-08-17T10:25:22.899Z,2.76
2022-08-17T10:26:21.964Z,2.72
2022-08-17T10:27:34.576Z,2.96
2022-08-17T10:29:02.385Z,2.77
2022-08-17T10:30:07.580Z,2.94
2022-08-17T10:31:34.469Z,2.67
2022-08-17T10:32:41.003Z,2.94
2022-08-17T10:34:11.807Z,3.07
2022-08-17T10:35:33.520Z,2.88
2022-08-17T10:36:53.818Z,3.01
2022-08-17T10:38:03.295Z,3.56
2022-08-17T10:39:09.841Z,3.02
2022-08-17T10:40:32.563Z,2.92
2022-08-17T10:41:42.398Z,3.26
2022-08-17T10:42:51.723Z,3.43
2022-08-17T10:44:38.520Z,3.30
2022-08-17T10:45:30.097Z,3.29
2022-08-17T10:46:53.471Z,3.24
2022-08-17T10:48:05.761Z,3.67
2022-08-17T10:49:23.260Z,3.79
2022-08-17T10:50:57.883Z,3.60
2022-08-17T10:52:22.302Z,4.37
2022-08-17T10:53:41.537Z,3.63
2022-08-17T10:54:58.751Z,3.82
2022-08-17T10:56:16.963Z,3.89
2022-08-17T10:57:32.616Z,3.88
2022-08-17T10:58:54.138Z,3.42
2022-08-17T10:59:58.725Z,3.73
2022-08-17T11:01:03.284Z,4.29
2022-08-17T11:02:17.474Z,3.71
2022-08-17T11:03:24.115Z,3.22
2022-08-17T11:04:47.402Z,3.58
2022-08-17T11:06:01.386Z,3.77
2022-08-17T11:07:27.741Z,3.18
2022-08-17T11:08:50.769Z,3.96
2022-08-17T11:10:06.610Z,3.61
2022-08-17T11:11:33.579Z,3.64
2022-08-17T11:12:49.485Z,3.54
2022-08-17T11:14:09.457Z,3.80
2022-08-17T11:15:34.232Z,3.99
2022-08-17T11:17:15.262Z,4.56
2022-08-17T11:18:27.714Z,3.28
2022-08-17T11:19:42.900Z,3.53
2022-08-17T11:21:09.092Z,2.99
2022-08-17T11:22:33.327Z,3.83
2022-08-17T11:23:40.157Z,3.22
2022-08-17T11:24:47.339Z,3.61
2022-08-17T11:25:54.030Z,4.27
2022-08-17T11:27:23.489Z,3.81
2022-08-17T11:28:34.304Z,3.89
2022-08-17T11:30:01.235Z,3.59
2022-08-17T11:31:10.803Z,4.48
2022-08-17T11:32:47.477Z,4.14
2022-08-17T11:33:56.278Z,4.04
2022-08-17T11:35:24.791Z,4.17
2022-08-17T11:37:10.553Z,4.08
2022-08-17T11:38:20.084Z,3.58
2022-08-17T11:39:26.814Z,4.28
2022-08-17T11:41:05.339Z,4.04
2022-08-17T11:42:35.682Z,4.28
2022-08-17T11:45:32.420Z,3.93
2022-08-17T11:48:28.823Z,3.90
2022-08-17T11:49:42.277Z,4.08
2022-08-17T11:51:08.663Z,4.34
2022-08-17T11:52:36.154Z,4.00
2022-08-17T11:53:42.837Z,4.13
2022-08-17T11:54:48.052Z,3.87
2022-08-17T11:56:00.728Z,3.85
2022-08-17T11:57:27.191Z,3.61
2022-08-17T11:58:35.692Z,3.89
2022-08-17T11:59:43.234Z,3.75
2022-08-17T12:00:51.294Z,3.83
2022-08-17T12:01:56.657Z,3.22
2022-08-17T12:03:22.943Z,3.89
2022-08-17T12:04:31.776Z,3.86
2022-08-17T12:05:36.270Z,3.82
2022-08-17T12:06:56.411Z,3.84
2022-08-17T12:09:21.483Z,4.03
2022-08-17T12:10:31.907Z,4.18
2022-08-17T12:12:10.927Z,4.03
2022-08-17T12:12:54.565Z,4.32
2022-08-17T12:14:00.266Z,4.09
2022-08-17T12:15:10.546Z,4.36
2022-08-17T12:16:17.200Z,3.84
2022-08-17T12:17:41.442Z,3.78
2022-08-17T12:18:37.799Z,4.00
2022-08-17T12:19:42.701Z,4.66
2022-08-17T12:20:53.217Z,3.92
2022-08-17T12:22:23.005Z,4.48
2022-08-17T12:23:39.363Z,4.59
2022-08-17T12:25:01.329Z,4.19
2022-08-17T12:26:14.707Z,3.96
2022-08-17T12:28:04.399Z,3.53
2022-08-17T12:28:35.544Z,4.49
2022-08-17T12:29:42.104Z,3.99
2022-08-17T12:30:50.426Z,3.72
2022-08-17T12:31:56.201Z,4.46
2022-08-17T12:33:00.443Z,3.39
2022-08-17T12:34:04.534Z,4.12
2022-08-17T12:35:23.331Z,3.72
2022-08-17T12:36:28.737Z,3.76
2022-08-17T12:37:34.805Z,3.90
2022-08-17T12:38:38.189Z,3.99
2022-08-17T12:39:53.983Z,4.07
2022-08-17T12:40:58.564Z,4.04
2022-08-17T12:42:02.801Z,4.39
2022-08-17T12:43:20.813Z,3.90
2022-08-17T12:44:36.011Z,4.03
2022-08-17T12:45:41.292Z,3.87
2022-08-17T12:46:53.314Z,4.33
2022-08-17T12:48:09.109Z,4.17
2022-08-17T12:49:29.007Z,3.57
2022-08-17T12:50:36.560Z,4.38
2022-08-17T12:51:44.852Z,4.02
2022-08-17T12:52:48.444Z,4.14
2022-08-17T12:53:55.081Z,4.27
2022-08-17T12:55:07.892Z,3.74
2022-08-17T12:56:13.003Z,3.75
2022-08-17T12:57:25.465Z,4.14
2022-08-17T12:58:32.099Z,3.48
2022-08-17T12:59:38.840Z,3.82
2022-08-17T13:01:08.298Z,4.04
2022-08-17T13:02:30.468Z,4.14
2022-08-17T13:03:39.669Z,4.24
2022-08-17T13:04:43.030Z,3.65
2022-08-17T13:06:05.757Z,4.16
2022-08-17T13:07:08.886Z,3.88
2022-08-17T13:08:22.725Z,4.06
2022-08-17T13:09:35.664Z,4.04
2022-08-17T13:10:35.559Z,3.96
2022-08-17T13:11:48.161Z,3.82
2022-08-17T13:12:52.008Z,3.58
2022-08-17T13:13:56.413Z,4.02
2022-08-17T13:14:59.838Z,3.92
2022-08-17T13:16:08.588Z,4.37
2022-08-17T13:17:13.730Z,3.89
2022-08-17T13:18:45.785Z,3.74
2022-08-17T13:19:50.893Z,3.91
2022-08-17T13:20:57.681Z,3.84
2022-08-17T13:22:01.569Z,3.68
2022-08-17T13:23:12.374Z,3.87
2022-08-17T13:24:19.971Z,3.82
2022-08-17T13:25:23.924Z,3.91
2022-08-17T13:26:33.385Z,3.69
2022-08-17T13:27:37.694Z,3.38
2022-08-17T13:28:51.217Z,4.05
2022-08-17T13:29:58.995Z,3.85
2022-08-17T13:32:43.032Z,3.63
2022-08-17T13:33:45.139Z,3.89
2022-08-17T13:35:15.207Z,3.81
2022-08-17T13:36:07.795Z,3.72
2022-08-17T13:37:32.195Z,3.66
2022-08-17T13:38:48.186Z,3.68
2022-08-17T13:39:56.124Z,3.93
2022-08-17T13:40:59.365Z,3.97
2022-08-17T13:42:05.890Z,3.61
2022-08-17T13:43:10.337Z,4.45
2022-08-17T13:44:33.169Z,3.86
2022-08-17T13:45:39.734Z,3.73
2022-08-17T13:46:47.245Z,3.41
2022-08-17T13:48:18.737Z,3.54
2022-08-17T13:49:22.152Z,3.50
2022-08-17T13:50:25.560Z,3.60
2022-08-17T13:51:31.031Z,3.71
2022-08-17T13:52:40.401Z,3.18
2022-08-17T13:53:49.328Z,3.73
2022-08-17T13:54:52.340Z,3.57
2022-08-17T13:56:38.373Z,3.78
2022-08-17T13:57:37.320Z,3.30
2022-08-17T13:58:43.473Z,3.12
2022-08-17T13:59:54.124Z,3.32
2022-08-17T14:00:55.767Z,3.83
2022-08-17T14:01:59.332Z,3.61
2022-08-17T14:03:05.007Z,3.12
2022-08-17T14:04:14.572Z,3.58
2022-08-17T14:05:17.693Z,3.18
2022-08-17T14:06:49.247Z,3.16
2022-08-17T14:07:30.161Z,3.46
2022-08-17T14:08:33.183Z,3.40
2022-08-17T14:09:51.671Z,3.66
2022-08-17T14:10:58.123Z,3.22
2022-08-17T14:12:02.651Z,3.74
2022-08-17T14:13:06.859Z,3.65
2022-08-17T14:14:10.730Z,4.45
2022-08-17T14:15:18.772Z,3.81
2022-08-17T14:16:23.340Z,4.12
2022-08-17T14:17:28.439Z,3.52
2022-08-17T14:18:55.850Z,3.55
2022-08-17T14:19:37.349Z,3.84
2022-08-17T14:20:40.819Z,3.98
2022-08-17T14:21:46.149Z,3.57
2022-08-17T14:22:51.763Z,3.43
2022-08-17T14:23:55.148Z,3.54
2022-08-17T14:25:01.065Z,3.62
2022-08-17T14:26:04.791Z,3.79
2022-08-17T14:27:11.410Z,3.72
2022-08-17T14:28:14.308Z,3.97
2022-08-17T14:29:17.518Z,3.41
2022-08-17T14:30:23.481Z,3.04
2022-08-17T14:31:27.122Z,3.13
2022-08-17T14:32:32.667Z,3.37
2022-08-17T14:33:36.352Z,3.54
2022-08-17T14:34:39.289Z,4.33
2022-08-17T14:35:42.331Z,3.39
2022-08-17T14:36:48.393Z,3.81
2022-08-17T14:37:52.517Z,3.13
2022-08-17T14:38:55.915Z,3.52
2022-08-17T14:40:01.522Z,3.56
2022-08-17T14:41:05.062Z,3.08
2022-08-17T14:42:10.188Z,3.36
2022-08-17T14:43:15.075Z,3.82
2022-08-17T14:44:18.378Z,3.74
2022-08-17T14:45:30.250Z,3.22
2022-08-17T14:46:27.248Z,3.52
2022-08-17T14:47:30.315Z,3.23
2022-08-17T14:48:35.161Z,3.72
2022-08-17T14:49:38.281Z,4.07
2022-08-17T14:50:42.656Z,3.45
2022-08-17T14:51:45.626Z,3.59
2022-08-17T14:52:48.616Z,3.55
2022-08-17T14:53:51.615Z,3.89
2022-08-17T14:54:54.868Z,3.44
2022-08-17T14:55:57.879Z,3.78
2022-08-17T14:57:23.010Z,3.48
2022-08-17T14:58:08.194Z,3.36
2022-08-17T14:59:11.350Z,3.49
2022-08-17T15:00:16.038Z,3.47
2022-08-17T15:01:20.536Z,4.20
2022-08-17T15:02:29.719Z,3.70
2022-08-17T15:03:33.111Z,3.79
2022-08-17T15:04:39.782Z,3.77
2022-08-17T15:05:43.675Z,3.63
2022-08-17T15:06:49.430Z,3.84
2022-08-17T15:07:54.364Z,3.08
2022-08-17T15:08:57.378Z,3.65
2022-08-17T15:10:01.926Z,4.14
2022-08-17T15:11:05.671Z,3.54
2022-08-17T15:12:08.975Z,3.80
2022-08-17T15:13:15.670Z,3.28
2022-08-17T15:14:18.625Z,3.53
2022-08-17T15:15:22.261Z,3.56
2022-08-17T15:16:26.450Z,3.11
2022-08-17T15:17:44.504Z,4.22
2022-08-17T15:18:35.936Z,4.08
2022-08-17T15:19:40.097Z,3.67
2022-08-17T15:20:43.939Z,3.52
2022-08-17T15:21:47.067Z,3.27
2022-08-17T15:22:50.279Z,3.92
2022-08-17T15:23:53.140Z,3.15
2022-08-17T15:24:56.208Z,3.46
2022-08-17T15:25:59.489Z,4.09
2022-08-17T15:27:02.994Z,3.52
2022-08-17T15:28:06.770Z,3.21
2022-08-17T15:29:10.300Z,3.43
2022-08-17T15:30:14.516Z,3.13
2022-08-17T15:31:32.364Z,3.98
2022-08-17T15:32:33.177Z,3.49
2022-08-17T15:33:36.404Z,3.01
2022-08-17T15:34:39.570Z,3.37
2022-08-17T15:35:42.756Z,3.36
2022-08-17T15:36:49.355Z,3.75
2022-08-17T15:37:51.259Z,3.33
2022-08-17T15:38:54.470Z,4.16
2022-08-17T15:39:57.843Z,3.32
2022-08-17T15:41:01.500Z,3.12
2022-08-17T15:42:05.095Z,3.41
2022-08-17T15:43:14.415Z,3.58